sensor_id;sensor_type;location;lat;lon;timestamp;temperature;humidity
71731;DHT22;59575;43.486;3.666;2022-12-07T00:01:27;4.90;70.90
71731;DHT22;59575;43.486;3.666;2022-12-07T00:03:54;4.80;70.80
71731;DHT22;59575;43.486;3.666;2022-12-07T00:06:26;4.90;70.60
71731;DHT22;59575;43.486;3.666;2022-12-07T00:08:52;4.90;70.60
71731;DHT22;59575;43.486;3.666;2022-12-07T00:11:20;4.90;70.40
71731;DHT22;59575;43.486;3.666;2022-12-07T00:13:47;4.90;70.30
71731;DHT22;59575;43.486;3.666;2022-12-07T00:16:17;4.90;70.20
71731;DHT22;59575;43.486;3.666;2022-12-07T00:18:44;4.90;70.10
71731;DHT22;59575;43.486;3.666;2022-12-07T00:21:16;4.90;70.30
71731;DHT22;59575;43.486;3.666;2022-12-07T00:23:43;4.80;70.40
71731;DHT22;59575;43.486;3.666;2022-12-07T00:28:46;4.70;70.80
71731;DHT22;59575;43.486;3.666;2022-12-07T00:31:13;4.70;71.00
71731;DHT22;59575;43.486;3.666;2022-12-07T00:33:39;4.60;71.00
71731;DHT22;59575;43.486;3.666;2022-12-07T00:36:07;4.60;71.10
71731;DHT22;59575;43.486;3.666;2022-12-07T00:38:35;4.60;71.10
71731;DHT22;59575;43.486;3.666;2022-12-07T00:41:04;4.60;71.10
71731;DHT22;59575;43.486;3.666;2022-12-07T00:43:31;4.60;71.40
71731;DHT22;59575;43.486;3.666;2022-12-07T00:45:57;4.60;71.70
71731;DHT22;59575;43.486;3.666;2022-12-07T00:48:23;4.50;71.50
71731;DHT22;59575;43.486;3.666;2022-12-07T00:50:49;4.60;71.70
71731;DHT22;59575;43.486;3.666;2022-12-07T00:53:15;4.50;71.70
71731;DHT22;59575;43.486;3.666;2022-12-07T00:55:42;4.50;71.60
71731;DHT22;59575;43.486;3.666;2022-12-07T00:58:08;4.50;71.70
71731;DHT22;59575;43.486;3.666;2022-12-07T01:00:36;4.40;71.50
71731;DHT22;59575;43.486;3.666;2022-12-07T01:03:02;4.30;71.50
71731;DHT22;59575;43.486;3.666;2022-12-07T01:05:28;4.20;71.50
71731;DHT22;59575;43.486;3.666;2022-12-07T01:07:54;4.20;71.50
71731;DHT22;59575;43.486;3.666;2022-12-07T01:10:19;4.10;71.50
71731;DHT22;59575;43.486;3.666;2022-12-07T01:12:45;4.10;71.70
71731;DHT22;59575;43.486;3.666;2022-12-07T01:15:11;4.00;71.70
71731;DHT22;59575;43.486;3.666;2022-12-07T01:17:36;3.90;71.70
71731;DHT22;59575;43.486;3.666;2022-12-07T01:20:03;3.90;72.00
71731;DHT22;59575;43.486;3.666;2022-12-07T01:22:29;3.90;71.80
71731;DHT22;59575;43.486;3.666;2022-12-07T01:24:55;4.00;71.90
71731;DHT22;59575;43.486;3.666;2022-12-07T01:27:21;4.10;71.40
71731;DHT22;59575;43.486;3.666;2022-12-07T01:29:47;4.10;71.50
71731;DHT22;59575;43.486;3.666;2022-12-07T01:32:13;4.10;71.40
71731;DHT22;59575;43.486;3.666;2022-12-07T01:34:38;4.10;71.20
71731;DHT22;59575;43.486;3.666;2022-12-07T01:37:04;4.20;71.10
71731;DHT22;59575;43.486;3.666;2022-12-07T01:39:30;4.20;70.80
71731;DHT22;59575;43.486;3.666;2022-12-07T01:41:55;4.20;70.60
71731;DHT22;59575;43.486;3.666;2022-12-07T01:46:57;4.20;70.40
71731;DHT22;59575;43.486;3.666;2022-12-07T01:49:35;4.20;69.90
71731;DHT22;59575;43.486;3.666;2022-12-07T01:52:18;4.10;69.90
71731;DHT22;59575;43.486;3.666;2022-12-07T01:54:47;4.20;69.60
71731;DHT22;59575;43.486;3.666;2022-12-07T01:57:15;4.20;69.40
71731;DHT22;59575;43.486;3.666;2022-12-07T01:59:42;4.20;69.10
71731;DHT22;59575;43.486;3.666;2022-12-07T02:02:14;4.20;69.30
71731;DHT22;59575;43.486;3.666;2022-12-07T02:04:43;4.20;69.20
71731;DHT22;59575;43.486;3.666;2022-12-07T02:07:09;4.10;69.20
71731;DHT22;59575;43.486;3.666;2022-12-07T02:09:35;4.10;69.60
71731;DHT22;59575;43.486;3.666;2022-12-07T02:12:01;4.10;69.30
71731;DHT22;59575;43.486;3.666;2022-12-07T02:14:27;4.10;69.60
71731;DHT22;59575;43.486;3.666;2022-12-07T02:30:21;3.90;70.40
71731;DHT22;59575;43.486;3.666;2022-12-07T02:32:59;3.80;70.60
71731;DHT22;59575;43.486;3.666;2022-12-07T02:40:57;3.80;71.00
71731;DHT22;59575;43.486;3.666;2022-12-07T02:43:30;3.70;71.20
71731;DHT22;59575;43.486;3.666;2022-12-07T02:46:03;3.60;71.40
71731;DHT22;59575;43.486;3.666;2022-12-07T02:48:31;3.60;71.60
71731;DHT22;59575;43.486;3.666;2022-12-07T02:50:58;3.60;71.50
71731;DHT22;59575;43.486;3.666;2022-12-07T02:53:32;3.50;71.60
71731;DHT22;59575;43.486;3.666;2022-12-07T02:56:03;3.50;71.80
71731;DHT22;59575;43.486;3.666;2022-12-07T02:58:41;3.50;72.00
71731;DHT22;59575;43.486;3.666;2022-12-07T03:01:15;3.40;72.10
71731;DHT22;59575;43.486;3.666;2022-12-07T03:03:48;3.40;72.10
71731;DHT22;59575;43.486;3.666;2022-12-07T03:06:24;3.40;72.20
71731;DHT22;59575;43.486;3.666;2022-12-07T03:09:14;3.40;72.20
71731;DHT22;59575;43.486;3.666;2022-12-07T03:11:48;3.30;72.20
71731;DHT22;59575;43.486;3.666;2022-12-07T03:14:21;3.30;72.20
71731;DHT22;59575;43.486;3.666;2022-12-07T03:17:05;3.20;72.40
71731;DHT22;59575;43.486;3.666;2022-12-07T03:19:34;3.20;72.50
71731;DHT22;59575;43.486;3.666;2022-12-07T03:22:04;3.20;72.60
71731;DHT22;59575;43.486;3.666;2022-12-07T03:24:55;3.10;72.70
71731;DHT22;59575;43.486;3.666;2022-12-07T03:27:29;3.10;72.70
71731;DHT22;59575;43.486;3.666;2022-12-07T03:30:10;3.00;72.70
71731;DHT22;59575;43.486;3.666;2022-12-07T03:32:45;3.00;72.80
71731;DHT22;59575;43.486;3.666;2022-12-07T03:35:33;3.00;72.70
71731;DHT22;59575;43.486;3.666;2022-12-07T03:38:19;3.00;72.50
71731;DHT22;59575;43.486;3.666;2022-12-07T03:41:01;3.00;72.50
71731;DHT22;59575;43.486;3.666;2022-12-07T03:43:30;3.00;72.20
71731;DHT22;59575;43.486;3.666;2022-12-07T03:51:44;3.00;72.30
71731;DHT22;59575;43.486;3.666;2022-12-07T03:54:37;3.00;72.30
71731;DHT22;59575;43.486;3.666;2022-12-07T03:57:05;2.90;72.30
71731;DHT22;59575;43.486;3.666;2022-12-07T03:59:31;3.00;72.30
71731;DHT22;59575;43.486;3.666;2022-12-07T04:02:06;2.90;72.10
71731;DHT22;59575;43.486;3.666;2022-12-07T04:04:32;3.00;71.90
71731;DHT22;59575;43.486;3.666;2022-12-07T04:06:58;2.90;71.90
71731;DHT22;59575;43.486;3.666;2022-12-07T04:09:24;3.00;71.50
71731;DHT22;59575;43.486;3.666;2022-12-07T04:11:50;3.00;71.40
71731;DHT22;59575;43.486;3.666;2022-12-07T04:14:16;3.10;71.00
71731;DHT22;59575;43.486;3.666;2022-12-07T04:16:50;3.10;70.90
71731;DHT22;59575;43.486;3.666;2022-12-07T04:19:19;3.10;70.60
71731;DHT22;59575;43.486;3.666;2022-12-07T04:21:45;3.20;70.60
71731;DHT22;59575;43.486;3.666;2022-12-07T04:24:12;3.10;70.50
71731;DHT22;59575;43.486;3.666;2022-12-07T04:26:38;3.10;70.60
71731;DHT22;59575;43.486;3.666;2022-12-07T04:29:04;3.20;70.30
71731;DHT22;59575;43.486;3.666;2022-12-07T04:31:30;3.20;70.20
71731;DHT22;59575;43.486;3.666;2022-12-07T04:33:56;3.20;70.30
71731;DHT22;59575;43.486;3.666;2022-12-07T04:36:21;3.10;70.10
71731;DHT22;59575;43.486;3.666;2022-12-07T04:38:47;3.10;70.10
71731;DHT22;59575;43.486;3.666;2022-12-07T04:41:14;3.10;70.30
71731;DHT22;59575;43.486;3.666;2022-12-07T04:43:39;3.10;70.20
71731;DHT22;59575;43.486;3.666;2022-12-07T04:46:05;3.10;70.00
71731;DHT22;59575;43.486;3.666;2022-12-07T04:48:31;3.10;70.20
71731;DHT22;59575;43.486;3.666;2022-12-07T04:50:57;3.10;70.20
71731;DHT22;59575;43.486;3.666;2022-12-07T04:53:22;3.10;70.30
71731;DHT22;59575;43.486;3.666;2022-12-07T04:55:48;3.10;70.20
71731;DHT22;59575;43.486;3.666;2022-12-07T04:58:14;3.10;70.30
71731;DHT22;59575;43.486;3.666;2022-12-07T05:00:40;3.00;70.50
71731;DHT22;59575;43.486;3.666;2022-12-07T05:03:06;3.00;70.50
71731;DHT22;59575;43.486;3.666;2022-12-07T05:05:32;3.00;70.60
71731;DHT22;59575;43.486;3.666;2022-12-07T05:07:57;3.00;70.70
71731;DHT22;59575;43.486;3.666;2022-12-07T05:10:23;3.00;70.70
71731;DHT22;59575;43.486;3.666;2022-12-07T05:12:49;3.00;70.70
71731;DHT22;59575;43.486;3.666;2022-12-07T05:15:15;3.00;70.70
71731;DHT22;59575;43.486;3.666;2022-12-07T05:17:41;2.90;70.80
71731;DHT22;59575;43.486;3.666;2022-12-07T05:20:08;2.90;70.80
71731;DHT22;59575;43.486;3.666;2022-12-07T05:22:34;2.90;71.00
71731;DHT22;59575;43.486;3.666;2022-12-07T05:24:59;2.90;71.00
71731;DHT22;59575;43.486;3.666;2022-12-07T05:27:25;2.90;70.80
71731;DHT22;59575;43.486;3.666;2022-12-07T05:29:51;2.90;71.00
71731;DHT22;59575;43.486;3.666;2022-12-07T05:32:17;2.90;71.20
71731;DHT22;59575;43.486;3.666;2022-12-07T05:34:43;2.90;71.10
71731;DHT22;59575;43.486;3.666;2022-12-07T05:37:09;2.90;71.50
71731;DHT22;59575;43.486;3.666;2022-12-07T05:39:35;2.90;71.10
71731;DHT22;59575;43.486;3.666;2022-12-07T05:42:00;2.90;71.60
71731;DHT22;59575;43.486;3.666;2022-12-07T05:44:43;2.90;71.30
71731;DHT22;59575;43.486;3.666;2022-12-07T05:47:09;2.90;71.50
71731;DHT22;59575;43.486;3.666;2022-12-07T05:49:35;2.80;71.50
71731;DHT22;59575;43.486;3.666;2022-12-07T05:52:01;2.90;71.70
71731;DHT22;59575;43.486;3.666;2022-12-07T05:54:27;2.90;71.50
71731;DHT22;59575;43.486;3.666;2022-12-07T05:56:53;2.90;71.70
71731;DHT22;59575;43.486;3.666;2022-12-07T05:59:19;2.90;71.70
71731;DHT22;59575;43.486;3.666;2022-12-07T06:01:52;2.90;71.60
71731;DHT22;59575;43.486;3.666;2022-12-07T06:04:19;2.80;71.70
71731;DHT22;59575;43.486;3.666;2022-12-07T06:06:45;2.90;71.80
71731;DHT22;59575;43.486;3.666;2022-12-07T06:09:10;2.90;71.50
71731;DHT22;59575;43.486;3.666;2022-12-07T06:11:36;2.90;71.80
71731;DHT22;59575;43.486;3.666;2022-12-07T06:14:20;2.90;71.70
71731;DHT22;59575;43.486;3.666;2022-12-07T06:16:46;2.90;71.20
71731;DHT22;59575;43.486;3.666;2022-12-07T06:19:12;2.90;71.40
71731;DHT22;59575;43.486;3.666;2022-12-07T06:21:37;2.90;71.40
71731;DHT22;59575;43.486;3.666;2022-12-07T06:24:03;2.90;71.40
71731;DHT22;59575;43.486;3.666;2022-12-07T06:26:29;2.80;71.50
71731;DHT22;59575;43.486;3.666;2022-12-07T06:28:55;2.80;71.20
71731;DHT22;59575;43.486;3.666;2022-12-07T06:31:20;2.80;71.50
71731;DHT22;59575;43.486;3.666;2022-12-07T06:33:46;2.80;71.40
71731;DHT22;59575;43.486;3.666;2022-12-07T06:36:12;2.80;71.50
71731;DHT22;59575;43.486;3.666;2022-12-07T06:38:38;2.90;71.70
71731;DHT22;59575;43.486;3.666;2022-12-07T06:41:04;2.90;71.20
71731;DHT22;59575;43.486;3.666;2022-12-07T06:43:30;2.90;71.70
71731;DHT22;59575;43.486;3.666;2022-12-07T06:45:55;2.90;71.40
71731;DHT22;59575;43.486;3.666;2022-12-07T06:48:21;2.80;71.30
71731;DHT22;59575;43.486;3.666;2022-12-07T06:50:47;2.70;71.70
71731;DHT22;59575;43.486;3.666;2022-12-07T06:53:13;2.80;72.10
71731;DHT22;59575;43.486;3.666;2022-12-07T06:55:39;2.90;71.30
71731;DHT22;59575;43.486;3.666;2022-12-07T06:58:05;2.90;70.90
71731;DHT22;59575;43.486;3.666;2022-12-07T07:00:31;3.00;70.70
71731;DHT22;59575;43.486;3.666;2022-12-07T07:02:56;3.00;70.70
71731;DHT22;59575;43.486;3.666;2022-12-07T07:05:22;3.00;70.60
71731;DHT22;59575;43.486;3.666;2022-12-07T07:07:51;3.00;70.50
71731;DHT22;59575;43.486;3.666;2022-12-07T07:10:17;3.00;70.40
71731;DHT22;59575;43.486;3.666;2022-12-07T07:12:42;3.10;70.30
71731;DHT22;59575;43.486;3.666;2022-12-07T07:15:08;3.20;70.00
71731;DHT22;59575;43.486;3.666;2022-12-07T07:17:35;3.20;69.70
71731;DHT22;59575;43.486;3.666;2022-12-07T07:20:00;3.10;69.90
71731;DHT22;59575;43.486;3.666;2022-12-07T07:22:26;3.10;70.40
71731;DHT22;59575;43.486;3.666;2022-12-07T07:24:52;3.00;70.20
71731;DHT22;59575;43.486;3.666;2022-12-07T07:27:17;3.00;70.20
71731;DHT22;59575;43.486;3.666;2022-12-07T07:29:43;3.00;70.10
71731;DHT22;59575;43.486;3.666;2022-12-07T07:32:09;2.90;70.20
71731;DHT22;59575;43.486;3.666;2022-12-07T07:34:34;3.00;70.30
71731;DHT22;59575;43.486;3.666;2022-12-07T07:37:00;3.00;70.50
71731;DHT22;59575;43.486;3.666;2022-12-07T07:39:26;3.10;70.00
71731;DHT22;59575;43.486;3.666;2022-12-07T07:41:52;3.10;70.60
71731;DHT22;59575;43.486;3.666;2022-12-07T07:44:17;3.20;70.20
71731;DHT22;59575;43.486;3.666;2022-12-07T07:46:43;3.60;68.60
71731;DHT22;59575;43.486;3.666;2022-12-07T07:49:09;4.00;68.10
71731;DHT22;59575;43.486;3.666;2022-12-07T07:51:36;4.30;66.80
71731;DHT22;59575;43.486;3.666;2022-12-07T07:54:02;4.30;66.50
71731;DHT22;59575;43.486;3.666;2022-12-07T07:56:28;4.40;66.20
71731;DHT22;59575;43.486;3.666;2022-12-07T07:58:54;4.50;65.90
71731;DHT22;59575;43.486;3.666;2022-12-07T08:01:20;4.60;65.80
71731;DHT22;59575;43.486;3.666;2022-12-07T08:03:46;4.80;65.20
71731;DHT22;59575;43.486;3.666;2022-12-07T08:06:12;4.90;65.30
71731;DHT22;59575;43.486;3.666;2022-12-07T08:08:38;5.00;64.70
71731;DHT22;59575;43.486;3.666;2022-12-07T08:11:08;5.10;64.50
71731;DHT22;59575;43.486;3.666;2022-12-07T08:13:34;5.20;64.30
71731;DHT22;59575;43.486;3.666;2022-12-07T08:16:04;5.20;63.30
71731;DHT22;59575;43.486;3.666;2022-12-07T08:18:30;5.20;63.40
71731;DHT22;59575;43.486;3.666;2022-12-07T08:21:00;5.30;62.90
71731;DHT22;59575;43.486;3.666;2022-12-07T08:23:28;5.30;62.50
71731;DHT22;59575;43.486;3.666;2022-12-07T08:25:54;5.50;63.30
71731;DHT22;59575;43.486;3.666;2022-12-07T08:28:20;5.50;62.20
71731;DHT22;59575;43.486;3.666;2022-12-07T08:30:46;5.50;62.00
71731;DHT22;59575;43.486;3.666;2022-12-07T08:33:12;5.50;62.20
71731;DHT22;59575;43.486;3.666;2022-12-07T08:35:37;5.60;62.60
71731;DHT22;59575;43.486;3.666;2022-12-07T08:38:03;5.60;62.40
71731;DHT22;59575;43.486;3.666;2022-12-07T08:40:29;5.80;62.60
71731;DHT22;59575;43.486;3.666;2022-12-07T08:42:55;6.00;62.00
71731;DHT22;59575;43.486;3.666;2022-12-07T08:45:21;6.00;61.70
71731;DHT22;59575;43.486;3.666;2022-12-07T08:50:16;5.80;61.20
71731;DHT22;59575;43.486;3.666;2022-12-07T08:52:43;5.80;61.00
71731;DHT22;59575;43.486;3.666;2022-12-07T08:55:12;5.70;60.80
71731;DHT22;59575;43.486;3.666;2022-12-07T08:57:38;5.70;60.80
71731;DHT22;59575;43.486;3.666;2022-12-07T09:00:05;5.60;61.80
71731;DHT22;59575;43.486;3.666;2022-12-07T09:02:32;5.70;61.00
71731;DHT22;59575;43.486;3.666;2022-12-07T09:04:57;5.80;60.60
71731;DHT22;59575;43.486;3.666;2022-12-07T09:07:24;6.00;59.90
71731;DHT22;59575;43.486;3.666;2022-12-07T09:09:50;6.10;59.70
71731;DHT22;59575;43.486;3.666;2022-12-07T09:12:15;6.20;58.80
71731;DHT22;59575;43.486;3.666;2022-12-07T09:14:41;6.30;59.40
71731;DHT22;59575;43.486;3.666;2022-12-07T09:17:08;6.50;59.10
71731;DHT22;59575;43.486;3.666;2022-12-07T09:19:35;6.70;58.80
71731;DHT22;59575;43.486;3.666;2022-12-07T09:22:01;6.60;58.70
71731;DHT22;59575;43.486;3.666;2022-12-07T09:24:26;6.50;58.10
71731;DHT22;59575;43.486;3.666;2022-12-07T09:26:52;6.60;59.40
71731;DHT22;59575;43.486;3.666;2022-12-07T09:29:18;6.70;59.40
71731;DHT22;59575;43.486;3.666;2022-12-07T09:31:43;6.70;58.60
71731;DHT22;59575;43.486;3.666;2022-12-07T09:34:09;6.80;59.10
71731;DHT22;59575;43.486;3.666;2022-12-07T09:36:35;6.90;58.90
71731;DHT22;59575;43.486;3.666;2022-12-07T09:39:01;6.90;58.60
71731;DHT22;59575;43.486;3.666;2022-12-07T09:41:30;7.00;58.60
71731;DHT22;59575;43.486;3.666;2022-12-07T09:44:14;7.00;59.00
71731;DHT22;59575;43.486;3.666;2022-12-07T09:46:43;7.10;59.40
71731;DHT22;59575;43.486;3.666;2022-12-07T09:49:16;7.10;58.80
71731;DHT22;59575;43.486;3.666;2022-12-07T09:51:43;7.10;58.90
71731;DHT22;59575;43.486;3.666;2022-12-07T09:54:13;7.10;59.00
71731;DHT22;59575;43.486;3.666;2022-12-07T09:56:39;7.10;59.40
71731;DHT22;59575;43.486;3.666;2022-12-07T09:59:04;7.20;58.90
71731;DHT22;59575;43.486;3.666;2022-12-07T10:01:32;7.30;59.10
71731;DHT22;59575;43.486;3.666;2022-12-07T10:06:34;7.50;58.20
71731;DHT22;59575;43.486;3.666;2022-12-07T10:09:00;7.70;58.40
71731;DHT22;59575;43.486;3.666;2022-12-07T10:11:26;7.70;57.90
71731;DHT22;59575;43.486;3.666;2022-12-07T10:13:52;7.70;57.80
71731;DHT22;59575;43.486;3.666;2022-12-07T10:16:42;7.70;57.70
71731;DHT22;59575;43.486;3.666;2022-12-07T10:19:26;7.70;56.60
71731;DHT22;59575;43.486;3.666;2022-12-07T10:22:10;7.80;57.00
71731;DHT22;59575;43.486;3.666;2022-12-07T10:24:37;7.90;57.00
71731;DHT22;59575;43.486;3.666;2022-12-07T10:27:05;7.90;56.60
71731;DHT22;59575;43.486;3.666;2022-12-07T10:29:33;8.00;56.80
71731;DHT22;59575;43.486;3.666;2022-12-07T10:32:06;8.10;56.70
71731;DHT22;59575;43.486;3.666;2022-12-07T10:34:33;8.20;56.20
71731;DHT22;59575;43.486;3.666;2022-12-07T10:39:54;8.10;56.30
71731;DHT22;59575;43.486;3.666;2022-12-07T10:44:47;8.20;55.40
71731;DHT22;59575;43.486;3.666;2022-12-07T10:52:50;8.20;55.50
71731;DHT22;59575;43.486;3.666;2022-12-07T10:58:20;8.30;55.90
71731;DHT22;59575;43.486;3.666;2022-12-07T11:06:51;8.40;54.70
71731;DHT22;59575;43.486;3.666;2022-12-07T11:09:47;8.30;55.70
71731;DHT22;59575;43.486;3.666;2022-12-07T11:14:55;8.60;54.60
71731;DHT22;59575;43.486;3.666;2022-12-07T11:20:37;8.70;53.80
71731;DHT22;59575;43.486;3.666;2022-12-07T11:23:44;8.70;53.90
71731;DHT22;59575;43.486;3.666;2022-12-07T11:26:14;8.80;54.00
71731;DHT22;59575;43.486;3.666;2022-12-07T11:32:07;8.80;54.00
71731;DHT22;59575;43.486;3.666;2022-12-07T11:37:16;8.80;53.80
71731;DHT22;59575;43.486;3.666;2022-12-07T11:42:44;9.00;54.00
71731;DHT22;59575;43.486;3.666;2022-12-07T11:45:18;9.00;53.70
71731;DHT22;59575;43.486;3.666;2022-12-07T11:47:47;9.00;53.80
71731;DHT22;59575;43.486;3.666;2022-12-07T11:52:53;9.10;54.00
71731;DHT22;59575;43.486;3.666;2022-12-07T12:00:42;9.20;53.80
71731;DHT22;59575;43.486;3.666;2022-12-07T12:03:40;9.30;54.10
71731;DHT22;59575;43.486;3.666;2022-12-07T12:06:03;9.30;53.20
71731;DHT22;59575;43.486;3.666;2022-12-07T12:21:46;9.40;53.40
71731;DHT22;59575;43.486;3.666;2022-12-07T12:24:19;9.50;52.70
71731;DHT22;59575;43.486;3.666;2022-12-07T12:26:54;9.40;52.70
71731;DHT22;59575;43.486;3.666;2022-12-07T12:35:03;9.40;53.50
71731;DHT22;59575;43.486;3.666;2022-12-07T12:37:46;9.40;53.40
71731;DHT22;59575;43.486;3.666;2022-12-07T12:42:51;9.40;53.80
71731;DHT22;59575;43.486;3.666;2022-12-07T12:45:28;9.50;52.90
71731;DHT22;59575;43.486;3.666;2022-12-07T12:48:26;9.40;52.90
71731;DHT22;59575;43.486;3.666;2022-12-07T12:54:22;9.50;54.00
71731;DHT22;59575;43.486;3.666;2022-12-07T12:59:42;9.60;53.00
71731;DHT22;59575;43.486;3.666;2022-12-07T13:02:36;9.70;53.10
71731;DHT22;59575;43.486;3.666;2022-12-07T13:15:50;9.70;52.60
71731;DHT22;59575;43.486;3.666;2022-12-07T13:26:16;9.60;52.60
71731;DHT22;59575;43.486;3.666;2022-12-07T13:28:48;9.70;53.60
71731;DHT22;59575;43.486;3.666;2022-12-07T13:31:16;9.70;52.70
71731;DHT22;59575;43.486;3.666;2022-12-07T13:33:46;9.70;52.90
71731;DHT22;59575;43.486;3.666;2022-12-07T13:36:23;9.70;53.30
71731;DHT22;59575;43.486;3.666;2022-12-07T13:38:57;9.70;53.20
71731;DHT22;59575;43.486;3.666;2022-12-07T13:41:28;9.70;53.40
71731;DHT22;59575;43.486;3.666;2022-12-07T13:44:01;9.60;53.70
71731;DHT22;59575;43.486;3.666;2022-12-07T13:46:37;9.60;53.70
71731;DHT22;59575;43.486;3.666;2022-12-07T13:49:21;9.60;53.50
71731;DHT22;59575;43.486;3.666;2022-12-07T13:51:47;9.60;53.60
71731;DHT22;59575;43.486;3.666;2022-12-07T13:54:14;9.50;53.30
71731;DHT22;59575;43.486;3.666;2022-12-07T13:56:40;9.40;53.20
71731;DHT22;59575;43.486;3.666;2022-12-07T13:59:24;9.40;54.00
71731;DHT22;59575;43.486;3.666;2022-12-07T14:01:51;9.40;54.30
71731;DHT22;59575;43.486;3.666;2022-12-07T14:04:37;9.40;54.10
71731;DHT22;59575;43.486;3.666;2022-12-07T14:07:23;9.40;54.10
71731;DHT22;59575;43.486;3.666;2022-12-07T14:10:02;9.40;54.10
71731;DHT22;59575;43.486;3.666;2022-12-07T14:12:29;9.30;54.70
71731;DHT22;59575;43.486;3.666;2022-12-07T14:14:57;9.30;54.10
71731;DHT22;59575;43.486;3.666;2022-12-07T14:17:25;9.20;54.50
71731;DHT22;59575;43.486;3.666;2022-12-07T14:19:56;9.30;54.20
71731;DHT22;59575;43.486;3.666;2022-12-07T14:24:57;9.30;54.40
71731;DHT22;59575;43.486;3.666;2022-12-07T14:27:24;9.30;54.10
71731;DHT22;59575;43.486;3.666;2022-12-07T14:29:56;9.20;54.30
71731;DHT22;59575;43.486;3.666;2022-12-07T14:32:27;9.20;54.60
71731;DHT22;59575;43.486;3.666;2022-12-07T14:35:16;9.10;55.30
71731;DHT22;59575;43.486;3.666;2022-12-07T14:37:45;9.20;54.70
71731;DHT22;59575;43.486;3.666;2022-12-07T14:40:20;9.20;54.80
71731;DHT22;59575;43.486;3.666;2022-12-07T14:42:47;9.20;55.50
71731;DHT22;59575;43.486;3.666;2022-12-07T14:45:19;9.10;55.10
71731;DHT22;59575;43.486;3.666;2022-12-07T14:47:45;9.10;55.10
71731;DHT22;59575;43.486;3.666;2022-12-07T14:50:13;9.20;54.20
71731;DHT22;59575;43.486;3.666;2022-12-07T14:52:40;9.10;55.20
71731;DHT22;59575;43.486;3.666;2022-12-07T14:55:28;9.10;55.10
71731;DHT22;59575;43.486;3.666;2022-12-07T14:57:54;9.10;55.50
71731;DHT22;59575;43.486;3.666;2022-12-07T15:00:25;9.10;55.50
71731;DHT22;59575;43.486;3.666;2022-12-07T15:02:51;9.00;55.20
71731;DHT22;59575;43.486;3.666;2022-12-07T15:05:18;9.00;55.10
71731;DHT22;59575;43.486;3.666;2022-12-07T15:07:44;8.90;55.60
71731;DHT22;59575;43.486;3.666;2022-12-07T15:10:32;8.90;55.80
71731;DHT22;59575;43.486;3.666;2022-12-07T15:13:02;8.80;56.10
71731;DHT22;59575;43.486;3.666;2022-12-07T15:15:48;8.80;56.20
71731;DHT22;59575;43.486;3.666;2022-12-07T15:18:15;8.70;56.50
71731;DHT22;59575;43.486;3.666;2022-12-07T15:20:41;8.60;57.10
71731;DHT22;59575;43.486;3.666;2022-12-07T15:23:07;8.60;57.40
71731;DHT22;59575;43.486;3.666;2022-12-07T15:25:33;8.50;57.90
71731;DHT22;59575;43.486;3.666;2022-12-07T15:27:58;8.50;58.10
71731;DHT22;59575;43.486;3.666;2022-12-07T15:30:24;8.40;58.40
71731;DHT22;59575;43.486;3.666;2022-12-07T15:32:53;8.40;58.80
71731;DHT22;59575;43.486;3.666;2022-12-07T15:35:20;8.30;59.20
71731;DHT22;59575;43.486;3.666;2022-12-07T15:37:45;8.30;60.10
71731;DHT22;59575;43.486;3.666;2022-12-07T15:40:12;8.40;59.20
71731;DHT22;59575;43.486;3.666;2022-12-07T15:42:38;8.30;59.80
71731;DHT22;59575;43.486;3.666;2022-12-07T15:45:06;8.20;60.60
71731;DHT22;59575;43.486;3.666;2022-12-07T15:47:40;8.00;60.60
71731;DHT22;59575;43.486;3.666;2022-12-07T15:50:12;7.90;60.90
71731;DHT22;59575;43.486;3.666;2022-12-07T15:52:39;7.80;61.10
71731;DHT22;59575;43.486;3.666;2022-12-07T15:55:05;7.70;61.50
71731;DHT22;59575;43.486;3.666;2022-12-07T15:57:32;7.60;61.70
71731;DHT22;59575;43.486;3.666;2022-12-07T15:59:58;7.50;62.00
71731;DHT22;59575;43.486;3.666;2022-12-07T16:02:25;7.30;62.30
71731;DHT22;59575;43.486;3.666;2022-12-07T16:04:51;7.30;62.30
71731;DHT22;59575;43.486;3.666;2022-12-07T16:07:17;7.30;63.00
71731;DHT22;59575;43.486;3.666;2022-12-07T16:09:45;7.30;63.20
71731;DHT22;59575;43.486;3.666;2022-12-07T16:12:11;7.20;63.20
71731;DHT22;59575;43.486;3.666;2022-12-07T16:14:37;7.20;62.80
71731;DHT22;59575;43.486;3.666;2022-12-07T16:17:04;7.20;62.20
71731;DHT22;59575;43.486;3.666;2022-12-07T16:19:31;7.10;62.50
71731;DHT22;59575;43.486;3.666;2022-12-07T16:21:57;7.10;62.40
71731;DHT22;59575;43.486;3.666;2022-12-07T16:24:23;7.00;62.70
71731;DHT22;59575;43.486;3.666;2022-12-07T16:26:49;6.90;62.70
71731;DHT22;59575;43.486;3.666;2022-12-07T16:29:15;6.90;62.60
71731;DHT22;59575;43.486;3.666;2022-12-07T16:31:41;6.90;62.10
71731;DHT22;59575;43.486;3.666;2022-12-07T16:34:07;6.80;62.10
71731;DHT22;59575;43.486;3.666;2022-12-07T16:36:33;6.80;62.50
71731;DHT22;59575;43.486;3.666;2022-12-07T16:39:00;6.80;62.30
71731;DHT22;59575;43.486;3.666;2022-12-07T16:41:26;6.70;62.10
71731;DHT22;59575;43.486;3.666;2022-12-07T16:43:52;6.70;62.30
71731;DHT22;59575;43.486;3.666;2022-12-07T16:46:18;6.60;62.40
71731;DHT22;59575;43.486;3.666;2022-12-07T16:48:44;6.60;62.60
71731;DHT22;59575;43.486;3.666;2022-12-07T16:51:11;6.50;62.60
71731;DHT22;59575;43.486;3.666;2022-12-07T16:53:38;6.50;63.30
71731;DHT22;59575;43.486;3.666;2022-12-07T16:56:12;6.40;63.50
71731;DHT22;59575;43.486;3.666;2022-12-07T16:58:40;6.40;63.80
71731;DHT22;59575;43.486;3.666;2022-12-07T17:01:13;6.30;63.80
71731;DHT22;59575;43.486;3.666;2022-12-07T17:03:39;6.30;64.10
71731;DHT22;59575;43.486;3.666;2022-12-07T17:06:15;6.20;64.20
71731;DHT22;59575;43.486;3.666;2022-12-07T17:08:42;6.20;64.20
71731;DHT22;59575;43.486;3.666;2022-12-07T17:11:13;6.10;64.60
71731;DHT22;59575;43.486;3.666;2022-12-07T17:13:39;6.10;64.90
71731;DHT22;59575;43.486;3.666;2022-12-07T17:16:23;6.10;64.00
71731;DHT22;59575;43.486;3.666;2022-12-07T17:18:48;6.10;64.30
71731;DHT22;59575;43.486;3.666;2022-12-07T17:21:14;6.10;64.00
71731;DHT22;59575;43.486;3.666;2022-12-07T17:23:40;6.10;63.80
71731;DHT22;59575;43.486;3.666;2022-12-07T17:26:14;6.10;63.20
71731;DHT22;59575;43.486;3.666;2022-12-07T17:28:40;6.10;62.80
71731;DHT22;59575;43.486;3.666;2022-12-07T17:31:09;6.10;62.70
71731;DHT22;59575;43.486;3.666;2022-12-07T17:33:35;6.10;62.50
71731;DHT22;59575;43.486;3.666;2022-12-07T17:36:17;6.20;62.40
71731;DHT22;59575;43.486;3.666;2022-12-07T17:38:44;6.10;62.50
71731;DHT22;59575;43.486;3.666;2022-12-07T17:41:16;6.10;62.80
71731;DHT22;59575;43.486;3.666;2022-12-07T17:44:02;6.00;63.40
71731;DHT22;59575;43.486;3.666;2022-12-07T17:46:29;5.90;64.10
71731;DHT22;59575;43.486;3.666;2022-12-07T17:48:56;5.90;63.90
71731;DHT22;59575;43.486;3.666;2022-12-07T17:51:21;5.90;64.10
71731;DHT22;59575;43.486;3.666;2022-12-07T17:54:06;5.90;64.30
71731;DHT22;59575;43.486;3.666;2022-12-07T17:56:32;5.80;64.50
71731;DHT22;59575;43.486;3.666;2022-12-07T17:58:57;5.80;64.70
71731;DHT22;59575;43.486;3.666;2022-12-07T18:01:23;5.70;65.00
71731;DHT22;59575;43.486;3.666;2022-12-07T18:03:49;5.70;65.10